sensor_id;sensor_type;location;lat;lon;timestamp;pressure;altitude;pressure_sealevel;temperature;humidity
52949;BME280;38812;50.942;3.644;2022-10-16T00:01:21;100811.81;;;12.39;100.00
52949;BME280;38812;50.942;3.644;2022-10-16T00:03:48;100821.41;;;12.42;100.00
52949;BME280;38812;50.942;3.644;2022-10-16T00:06:15;100787.94;;;12.14;100.00
52949;BME280;38812;50.942;3.644;2022-10-16T00:08:41;100820.72;;;12.35;100.00
52949;BME280;38812;50.942;3.644;2022-10-16T00:11:11;100802.78;;;12.18;100.00
52949;BME280;38812;50.942;3.644;2022-10-16T00:13:38;100804.38;;;12.24;100.00
52949;BME280;38812;50.942;3.644;2022-10-16T00:16:05;100785.13;;;12.22;100.00
52949;BME280;38812;50.942;3.644;2022-10-16T00:18:30;100794.63;;;12.27;100.00
52949;BME280;38812;50.942;3.644;2022-10-16T00:21:02;100771.13;;;12.20;100.00
52949;BME280;38812;50.942;3.644;2022-10-16T00:23:27;100799.88;;;12.27;100.00
52949;BME280;38812;50.942;3.644;2022-10-16T00:26:02;100769.41;;;12.19;100.00
52949;BME280;38812;50.942;3.644;2022-10-16T00:28:27;100777.94;;;12.27;100.00
52949;BME280;38812;50.942;3.644;2022-10-16T00:30:53;100736.59;;;11.99;100.00
52949;BME280;38812;50.942;3.644;2022-10-16T00:33:19;100764.91;;;12.22;100.00
52949;BME280;38812;50.942;3.644;2022-10-16T00:35:45;100744.88;;;12.17;100.00
52949;BME280;38812;50.942;3.644;2022-10-16T00:38:10;100743.06;;;12.19;100.00
52949;BME280;38812;50.942;3.644;2022-10-16T00:40:36;100756.09;;;12.23;100.00
52949;BME280;38812;50.942;3.644;2022-10-16T00:43:01;100748.25;;;12.22;100.00
52949;BME280;38812;50.942;3.644;2022-10-16T00:45:26;100756.88;;;12.27;100.00
52949;BME280;38812;50.942;3.644;2022-10-16T00:47:54;100759.38;;;12.31;100.00
52949;BME280;38812;50.942;3.644;2022-10-16T00:52:50;100786.25;;;12.43;100.00
52949;BME280;38812;50.942;3.644;2022-10-16T00:55:17;100768.09;;;12.33;100.00
52949;BME280;38812;50.942;3.644;2022-10-16T00:57:43;100774.16;;;12.35;100.00
52949;BME280;38812;50.942;3.644;2022-10-16T01:00:12;100782.13;;;12.34;100.00
52949;BME280;38812;50.942;3.644;2022-10-16T01:02:38;100772.69;;;12.27;100.00
52949;BME280;38812;50.942;3.644;2022-10-16T01:05:03;100790.75;;;12.39;100.00
52949;BME280;38812;50.942;3.644;2022-10-16T01:10:30;100764.81;;;12.25;100.00
52949;BME280;38812;50.942;3.644;2022-10-16T01:13:05;100778.84;;;12.26;100.00
52949;BME280;38812;50.942;3.644;2022-10-16T01:15:37;100777.38;;;12.16;100.00
52949;BME280;38812;50.942;3.644;2022-10-16T01:20:45;100762.59;;;12.12;100.00
52949;BME280;38812;50.942;3.644;2022-10-16T01:29:30;100778.19;;;12.18;100.00
52949;BME280;38812;50.942;3.644;2022-10-16T01:32:03;100761.63;;;12.14;100.00
52949;BME280;38812;50.942;3.644;2022-10-16T01:34:52;100714.09;;;11.89;100.00
52949;BME280;38812;50.942;3.644;2022-10-16T01:37:28;100747.72;;;12.11;100.00
52949;BME280;38812;50.942;3.644;2022-10-16T01:39:58;100741.53;;;12.12;100.00
52949;BME280;38812;50.942;3.644;2022-10-16T01:42:30;100733.06;;;12.00;100.00
52949;BME280;38812;50.942;3.644;2022-10-16T01:44:59;100736.44;;;12.06;100.00
52949;BME280;38812;50.942;3.644;2022-10-16T01:47:26;100746.88;;;12.09;100.00
52949;BME280;38812;50.942;3.644;2022-10-16T01:49:53;100729.41;;;12.06;100.00
52949;BME280;38812;50.942;3.644;2022-10-16T01:52:23;100753.59;;;12.19;100.00
52949;BME280;38812;50.942;3.644;2022-10-16T01:54:53;100755.31;;;12.20;100.00
52949;BME280;38812;50.942;3.644;2022-10-16T01:57:21;100764.88;;;12.24;100.00
52949;BME280;38812;50.942;3.644;2022-10-16T01:59:51;100773.63;;;12.24;100.00
52949;BME280;38812;50.942;3.644;2022-10-16T02:02:18;100765.91;;;12.18;100.00
52949;BME280;38812;50.942;3.644;2022-10-16T02:05:02;100726.16;;;11.96;100.00
52949;BME280;38812;50.942;3.644;2022-10-16T02:07:30;100746.59;;;12.18;100.00
52949;BME280;38812;50.942;3.644;2022-10-16T02:09:56;100739.69;;;12.14;100.00
52949;BME280;38812;50.942;3.644;2022-10-16T02:12:28;100745.06;;;12.11;100.00
52949;BME280;38812;50.942;3.644;2022-10-16T02:14:56;100716.47;;;11.97;100.00
52949;BME280;38812;50.942;3.644;2022-10-16T02:17:22;100737.16;;;12.11;100.00
52949;BME280;38812;50.942;3.644;2022-10-16T02:19:50;100743.44;;;12.07;100.00
52949;BME280;38812;50.942;3.644;2022-10-16T02:25:05;100731.25;;;12.02;100.00
52949;BME280;38812;50.942;3.644;2022-10-16T02:27:36;100738.16;;;12.07;100.00
52949;BME280;38812;50.942;3.644;2022-10-16T02:30:25;100725.97;;;12.02;100.00
52949;BME280;38812;50.942;3.644;2022-10-16T02:32:52;100744.16;;;12.12;100.00
52949;BME280;38812;50.942;3.644;2022-10-16T02:35:20;100720.03;;;11.96;100.00
52949;BME280;38812;50.942;3.644;2022-10-16T02:37:47;100757.41;;;12.09;100.00
52949;BME280;38812;50.942;3.644;2022-10-16T02:40:14;100761.03;;;12.05;100.00
52949;BME280;38812;50.942;3.644;2022-10-16T02:42:40;100757.50;;;12.06;100.00
52949;BME280;38812;50.942;3.644;2022-10-16T02:45:08;100775.03;;;12.07;100.00
52949;BME280;38812;50.942;3.644;2022-10-16T02:47:34;100779.38;;;12.08;100.00
52949;BME280;38812;50.942;3.644;2022-10-16T02:49:59;100790.53;;;12.16;100.00
52949;BME280;38812;50.942;3.644;2022-10-16T02:52:25;100796.72;;;12.15;100.00
52949;BME280;38812;50.942;3.644;2022-10-16T02:54:50;100772.44;;;12.05;100.00
52949;BME280;38812;50.942;3.644;2022-10-16T02:57:17;100790.63;;;12.13;100.00
52949;BME280;38812;50.942;3.644;2022-10-16T02:59:43;100801.16;;;12.13;100.00
52949;BME280;38812;50.942;3.644;2022-10-16T03:02:08;100802.22;;;12.07;100.00
52949;BME280;38812;50.942;3.644;2022-10-16T03:04:34;100804.94;;;12.04;100.00
52949;BME280;38812;50.942;3.644;2022-10-16T03:06:59;100800.63;;;12.01;100.00
52949;BME280;38812;50.942;3.644;2022-10-16T03:09:24;100806.69;;;12.04;100.00
52949;BME280;38812;50.942;3.644;2022-10-16T03:11:50;100812.91;;;12.01;100.00
52949;BME280;38812;50.942;3.644;2022-10-16T03:14:15;100810.31;;;11.99;100.00
52949;BME280;38812;50.942;3.644;2022-10-16T03:16:40;100788.03;;;11.80;100.00
52949;BME280;38812;50.942;3.644;2022-10-16T03:19:06;100811.34;;;11.94;100.00
52949;BME280;38812;50.942;3.644;2022-10-16T03:21:32;100825.09;;;12.05;100.00
52949;BME280;38812;50.942;3.644;2022-10-16T03:23:57;100807.88;;;11.92;100.00
52949;BME280;38812;50.942;3.644;2022-10-16T03:26:23;100818.19;;;12.01;100.00
52949;BME280;38812;50.942;3.644;2022-10-16T03:28:48;100825.97;;;12.06;100.00
52949;BME280;38812;50.942;3.644;2022-10-16T03:31:13;100829.41;;;12.08;100.00
52949;BME280;38812;50.942;3.644;2022-10-16T03:33:39;100819.03;;;12.01;100.00
52949;BME280;38812;50.942;3.644;2022-10-16T03:36:04;100804.63;;;11.84;100.00
52949;BME280;38812;50.942;3.644;2022-10-16T03:38:29;100826.19;;;11.96;100.00
52949;BME280;38812;50.942;3.644;2022-10-16T03:40:55;100840.91;;;12.05;100.00
52949;BME280;38812;50.942;3.644;2022-10-16T03:43:20;100839.28;;;11.99;100.00
52949;BME280;38812;50.942;3.644;2022-10-16T03:45:45;100824.72;;;11.86;100.00
52949;BME280;38812;50.942;3.644;2022-10-16T03:48:11;100835.91;;;11.94;100.00
52949;BME280;38812;50.942;3.644;2022-10-16T03:50:36;100829.91;;;11.89;100.00
52949;BME280;38812;50.942;3.644;2022-10-16T03:53:02;100831.72;;;11.87;100.00
52949;BME280;38812;50.942;3.644;2022-10-16T03:55:27;100828.19;;;11.88;100.00
52949;BME280;38812;50.942;3.644;2022-10-16T03:57:52;100812.94;;;11.67;100.00
52949;BME280;38812;50.942;3.644;2022-10-16T04:00:18;100820.59;;;11.76;100.00
52949;BME280;38812;50.942;3.644;2022-10-16T04:02:43;100821.69;;;11.67;100.00
52949;BME280;38812;50.942;3.644;2022-10-16T04:05:08;100835.56;;;11.73;100.00
52949;BME280;38812;50.942;3.644;2022-10-16T04:07:34;100804.50;;;11.53;100.00
52949;BME280;38812;50.942;3.644;2022-10-16T04:09:59;100824.28;;;11.69;100.00
52949;BME280;38812;50.942;3.644;2022-10-16T04:12:26;100806.00;;;11.63;100.00
52949;BME280;38812;50.942;3.644;2022-10-16T04:14:51;100811.81;;;11.77;100.00
52949;BME280;38812;50.942;3.644;2022-10-16T04:17:17;100829.59;;;11.67;100.00
52949;BME280;38812;50.942;3.644;2022-10-16T04:19:42;100833.88;;;11.70;100.00
52949;BME280;38812;50.942;3.644;2022-10-16T04:22:08;100826.19;;;11.62;100.00
52949;BME280;38812;50.942;3.644;2022-10-16T04:24:33;100839.25;;;11.67;100.00
52949;BME280;38812;50.942;3.644;2022-10-16T04:26:58;100822.03;;;11.54;100.00
52949;BME280;38812;50.942;3.644;2022-10-16T04:29:24;100829.09;;;11.52;100.00
52949;BME280;38812;50.942;3.644;2022-10-16T04:31:49;100807.47;;;11.41;100.00
52949;BME280;38812;50.942;3.644;2022-10-16T04:34:15;100808.53;;;11.32;100.00
52949;BME280;38812;50.942;3.644;2022-10-16T04:36:40;100806.25;;;11.18;100.00
52949;BME280;38812;50.942;3.644;2022-10-16T04:39:05;100815.75;;;11.25;100.00
52949;BME280;38812;50.942;3.644;2022-10-16T04:41:31;100805.13;;;11.28;100.00
52949;BME280;38812;50.942;3.644;2022-10-16T04:43:56;100782.34;;;11.27;100.00
52949;BME280;38812;50.942;3.644;2022-10-16T04:46:21;100780.34;;;11.39;100.00
52949;BME280;38812;50.942;3.644;2022-10-16T04:48:47;100772.59;;;11.32;100.00
52949;BME280;38812;50.942;3.644;2022-10-16T04:51:12;100799.56;;;11.41;100.00
52949;BME280;38812;50.942;3.644;2022-10-16T04:53:37;100796.88;;;11.44;100.00
52949;BME280;38812;50.942;3.644;2022-10-16T04:56:03;100773.50;;;11.31;100.00
52949;BME280;38812;50.942;3.644;2022-10-16T04:58:29;100808.28;;;11.43;100.00
52949;BME280;38812;50.942;3.644;2022-10-16T05:00:54;100808.28;;;11.43;100.00
52949;BME280;38812;50.942;3.644;2022-10-16T05:03:20;100791.06;;;11.29;100.00
52949;BME280;38812;50.942;3.644;2022-10-16T05:05:46;100817.84;;;11.47;100.00
52949;BME280;38812;50.942;3.644;2022-10-16T05:08:13;100808.44;;;11.37;100.00
52949;BME280;38812;50.942;3.644;2022-10-16T05:10:38;100833.66;;;11.45;100.00
52949;BME280;38812;50.942;3.644;2022-10-16T05:13:04;100798.84;;;11.34;100.00
52949;BME280;38812;50.942;3.644;2022-10-16T05:15:29;100827.03;;;11.64;100.00
52949;BME280;38812;50.942;3.644;2022-10-16T05:17:55;100823.53;;;11.64;100.00
52949;BME280;38812;50.942;3.644;2022-10-16T05:20:21;100860.72;;;11.86;100.00
52949;BME280;38812;50.942;3.644;2022-10-16T05:22:47;100868.72;;;11.81;100.00
52949;BME280;38812;50.942;3.644;2022-10-16T05:25:13;100874.75;;;11.86;100.00
52949;BME280;38812;50.942;3.644;2022-10-16T05:27:38;100900.56;;;12.06;100.00
52949;BME280;38812;50.942;3.644;2022-10-16T05:30:04;100879.97;;;11.88;100.00
52949;BME280;38812;50.942;3.644;2022-10-16T05:32:29;100921.41;;;12.14;100.00
52949;BME280;38812;50.942;3.644;2022-10-16T05:34:55;100931.03;;;12.15;100.00
52949;BME280;38812;50.942;3.644;2022-10-16T05:37:20;100943.28;;;12.16;100.00
52949;BME280;38812;50.942;3.644;2022-10-16T05:39:45;100934.72;;;12.09;100.00
52949;BME280;38812;50.942;3.644;2022-10-16T05:42:11;100966.91;;;12.19;100.00
52949;BME280;38812;50.942;3.644;2022-10-16T05:44:36;100972.22;;;12.17;100.00
52949;BME280;38812;50.942;3.644;2022-10-16T05:47:01;100953.22;;;12.06;100.00
52949;BME280;38812;50.942;3.644;2022-10-16T05:49:27;100973.31;;;12.10;100.00
52949;BME280;38812;50.942;3.644;2022-10-16T05:51:52;100959.44;;;12.04;100.00
52949;BME280;38812;50.942;3.644;2022-10-16T05:54:17;100963.19;;;11.93;100.00
52949;BME280;38812;50.942;3.644;2022-10-16T05:56:43;100936.25;;;11.82;100.00
52949;BME280;38812;50.942;3.644;2022-10-16T05:59:08;100956.03;;;11.98;100.00
52949;BME280;38812;50.942;3.644;2022-10-16T06:01:34;100949.28;;;11.88;100.00
52949;BME280;38812;50.942;3.644;2022-10-16T06:04:01;100959.81;;;11.88;100.00
52949;BME280;38812;50.942;3.644;2022-10-16T06:06:27;100947.75;;;11.78;100.00
52949;BME280;38812;50.942;3.644;2022-10-16T06:08:54;100967.91;;;11.79;100.00
52949;BME280;38812;50.942;3.644;2022-10-16T06:11:25;100911.63;;;11.48;100.00
52949;BME280;38812;50.942;3.644;2022-10-16T06:13:59;100957.78;;;11.62;100.00
52949;BME280;38812;50.942;3.644;2022-10-16T06:16:27;100928.31;;;11.47;100.00
52949;BME280;38812;50.942;3.644;2022-10-16T06:18:53;100918.91;;;11.37;100.00
52949;BME280;38812;50.942;3.644;2022-10-16T06:21:21;100930.13;;;11.45;100.00
52949;BME280;38812;50.942;3.644;2022-10-16T06:23:46;100902.28;;;11.34;100.00
52949;BME280;38812;50.942;3.644;2022-10-16T06:26:17;100918.00;;;11.38;100.00
52949;BME280;38812;50.942;3.644;2022-10-16T06:28:43;100913.56;;;11.40;100.00
52949;BME280;38812;50.942;3.644;2022-10-16T06:31:09;100917.25;;;11.32;100.00
52949;BME280;38812;50.942;3.644;2022-10-16T06:33:36;100913.66;;;11.37;100.00
52949;BME280;38812;50.942;3.644;2022-10-16T06:36:15;100886.53;;;11.33;100.00
52949;BME280;38812;50.942;3.644;2022-10-16T06:38:42;100891.75;;;11.36;100.00
52949;BME280;38812;50.942;3.644;2022-10-16T06:41:09;100897.91;;;11.35;100.00
52949;BME280;38812;50.942;3.644;2022-10-16T06:43:36;100931.91;;;11.44;100.00
52949;BME280;38812;50.942;3.644;2022-10-16T06:46:03;100924.75;;;11.48;100.00
52949;BME280;38812;50.942;3.644;2022-10-16T06:48:30;100933.34;;;11.56;100.00
52949;BME280;38812;50.942;3.644;2022-10-16T06:53:24;100959.47;;;11.65;100.00
52949;BME280;38812;50.942;3.644;2022-10-16T06:55:49;100946.38;;;11.62;100.00
52949;BME280;38812;50.942;3.644;2022-10-16T06:58:14;100961.00;;;11.74;100.00
52949;BME280;38812;50.942;3.644;2022-10-16T07:00:40;100972.34;;;11.77;100.00
52949;BME280;38812;50.942;3.644;2022-10-16T07:03:05;101005.09;;;12.02;100.00
52949;BME280;38812;50.942;3.644;2022-10-16T07:05:30;101004.16;;;12.05;100.00
52949;BME280;38812;50.942;3.644;2022-10-16T07:07:56;101039.56;;;12.29;100.00
52949;BME280;38812;50.942;3.644;2022-10-16T07:10:21;101041.13;;;12.36;100.00
52949;BME280;38812;50.942;3.644;2022-10-16T07:12:49;101079.19;;;12.58;100.00
52949;BME280;38812;50.942;3.644;2022-10-16T07:15:14;101091.38;;;12.62;100.00
52949;BME280;38812;50.942;3.644;2022-10-16T07:17:40;101099.97;;;12.70;100.00
52949;BME280;38812;50.942;3.644;2022-10-16T07:20:06;101127.84;;;12.79;100.00
52949;BME280;38812;50.942;3.644;2022-10-16T07:22:31;101117.44;;;12.75;100.00
52949;BME280;38812;50.942;3.644;2022-10-16T07:24:57;101142.00;;;12.77;100.00
52949;BME280;38812;50.942;3.644;2022-10-16T07:27:23;101148.72;;;12.88;100.00
52949;BME280;38812;50.942;3.644;2022-10-16T07:29:49;101169.78;;;12.90;100.00
52949;BME280;38812;50.942;3.644;2022-10-16T07:32:14;101179.28;;;12.97;100.00
52949;BME280;38812;50.942;3.644;2022-10-16T07:34:40;101201.91;;;13.05;100.00
52949;BME280;38812;50.942;3.644;2022-10-16T07:37:05;101213.97;;;13.17;100.00
52949;BME280;38812;50.942;3.644;2022-10-16T07:39:30;101172.81;;;13.09;100.00
52949;BME280;38812;50.942;3.644;2022-10-16T07:41:56;101223.91;;;13.40;100.00
52949;BME280;38812;50.942;3.644;2022-10-16T07:44:21;101233.41;;;13.46;100.00
52949;BME280;38812;50.942;3.644;2022-10-16T07:46:46;101193.22;;;13.36;100.00
52949;BME280;38812;50.942;3.644;2022-10-16T07:49:12;101243.38;;;13.67;100.00
52949;BME280;38812;50.942;3.644;2022-10-16T07:51:37;101241.38;;;13.77;100.00
52949;BME280;38812;50.942;3.644;2022-10-16T07:54:04;101263.97;;;14.18;100.00
52949;BME280;38812;50.942;3.644;2022-10-16T07:56:30;101282.94;;;14.61;100.00
52949;BME280;38812;50.942;3.644;2022-10-16T07:58:57;101305.28;;;15.35;100.00
52949;BME280;38812;50.942;3.644;2022-10-16T08:01:22;101323.09;;;15.81;100.00
52949;BME280;38812;50.942;3.644;2022-10-16T08:03:49;101343.59;;;16.26;100.00
52949;BME280;38812;50.942;3.644;2022-10-16T08:06:16;101337.63;;;16.67;100.00
52949;BME280;38812;50.942;3.644;2022-10-16T08:08:41;101352.13;;;17.04;100.00
52949;BME280;38812;50.942;3.644;2022-10-16T08:11:07;101348.28;;;17.11;100.00
52949;BME280;38812;50.942;3.644;2022-10-16T08:13:33;101350.88;;;17.34;100.00
52949;BME280;38812;50.942;3.644;2022-10-16T08:15:59;101348.16;;;17.36;100.00
52949;BME280;38812;50.942;3.644;2022-10-16T08:18:24;101364.66;;;17.86;100.00
52949;BME280;38812;50.942;3.644;2022-10-16T08:20:57;101349.38;;;18.11;100.00
52949;BME280;38812;50.942;3.644;2022-10-16T08:23:24;101344.63;;;17.35;100.00
52949;BME280;38812;50.942;3.644;2022-10-16T08:25:51;101340.09;;;16.72;100.00
52949;BME280;38812;50.942;3.644;2022-10-16T08:28:17;101359.31;;;16.78;100.00
52949;BME280;38812;50.942;3.644;2022-10-16T08:30:43;101374.13;;;17.29;100.00
52949;BME280;38812;50.942;3.644;2022-10-16T08:33:08;101377.38;;;17.36;100.00
52949;BME280;38812;50.942;3.644;2022-10-16T08:35:33;101353.47;;;17.36;100.00
52949;BME280;38812;50.942;3.644;2022-10-16T08:37:59;101372.13;;;17.34;100.00
52949;BME280;38812;50.942;3.644;2022-10-16T08:40:25;101386.19;;;17.80;100.00
52949;BME280;38812;50.942;3.644;2022-10-16T08:43:20;101370.38;;;17.33;100.00
52949;BME280;38812;50.942;3.644;2022-10-16T08:51:04;101384.44;;;18.60;100.00
52949;BME280;38812;50.942;3.644;2022-10-16T08:53:42;101390.50;;;18.82;100.00
52949;BME280;38812;50.942;3.644;2022-10-16T08:56:09;101366.44;;;18.84;100.00
52949;BME280;38812;50.942;3.644;2022-10-16T08:58:35;101394.72;;;19.24;100.00
52949;BME280;38812;50.942;3.644;2022-10-16T09:01:03;101404.50;;;19.42;100.00
52949;BME280;38812;50.942;3.644;2022-10-16T09:04:18;101402.03;;;19.74;100.00
52949;BME280;38812;50.942;3.644;2022-10-16T09:06:53;101377.19;;;19.56;100.00
52949;BME280;38812;50.942;3.644;2022-10-16T09:12:17;101411.28;;;20.36;100.00
52949;BME280;38812;50.942;3.644;2022-10-16T09:22:47;101403.22;;;19.68;100.00
52949;BME280;38812;50.942;3.644;2022-10-16T09:25:18;101424.16;;;19.76;100.00
52949;BME280;38812;50.942;3.644;2022-10-16T09:27:47;101430.22;;;19.25;100.00
52949;BME280;38812;50.942;3.644;2022-10-16T09:30:14;101417.41;;;19.14;100.00
52949;BME280;38812;50.942;3.644;2022-10-16T09:32:41;101426.97;;;19.73;100.00
52949;BME280;38812;50.942;3.644;2022-10-16T09:35:15;101404.84;;;19.54;100.00
52949;BME280;38812;50.942;3.644;2022-10-16T09:37:43;101422.53;;;19.91;100.00
52949;BME280;38812;50.942;3.644;2022-10-16T09:40:26;101408.41;;;20.06;100.00
52949;BME280;38812;50.942;3.644;2022-10-16T09:43:20;101430.28;;;20.30;100.00
52949;BME280;38812;50.942;3.644;2022-10-16T09:48:25;101418.69;;;19.96;100.00
52949;BME280;38812;50.942;3.644;2022-10-16T09:50:59;101430.13;;;20.50;100.00
52949;BME280;38812;50.942;3.644;2022-10-16T09:53:37;101420.34;;;20.66;100.00
52949;BME280;38812;50.942;3.644;2022-10-16T09:56:03;101441.31;;;20.74;100.00
52949;BME280;38812;50.942;3.644;2022-10-16T09:58:30;101409.78;;;20.80;100.00
52949;BME280;38812;50.942;3.644;2022-10-16T10:00:58;101442.81;;;20.62;100.00
52949;BME280;38812;50.942;3.644;2022-10-16T10:05:57;101442.25;;;20.73;100.00
52949;BME280;38812;50.942;3.644;2022-10-16T10:08:23;101441.25;;;20.58;100.00
52949;BME280;38812;50.942;3.644;2022-10-16T10:10:49;101445.53;;;19.57;100.00
52949;BME280;38812;50.942;3.644;2022-10-16T10:13:22;101428.47;;;19.96;100.00
52949;BME280;38812;50.942;3.644;2022-10-16T10:15:50;101432.25;;;20.26;100.00
52949;BME280;38812;50.942;3.644;2022-10-16T10:18:21;101429.03;;;20.54;100.00
52949;BME280;38812;50.942;3.644;2022-10-16T10:21:02;101435.19;;;20.72;100.00
52949;BME280;38812;50.942;3.644;2022-10-16T10:23:29;101442.75;;;20.79;100.00
52949;BME280;38812;50.942;3.644;2022-10-16T10:26:07;101450.22;;;20.90;100.00
52949;BME280;38812;50.942;3.644;2022-10-16T10:31:36;101417.69;;;20.66;100.00
52949;BME280;38812;50.942;3.644;2022-10-16T10:40:07;101443.72;;;20.45;100.00
52949;BME280;38812;50.942;3.644;2022-10-16T10:45:18;101447.25;;;20.79;100.00
52949;BME280;38812;50.942;3.644;2022-10-16T10:53:21;101457.25;;;20.75;100.00
52949;BME280;38812;50.942;3.644;2022-10-16T10:56:02;101463.16;;;20.98;100.00
52949;BME280;38812;50.942;3.644;2022-10-16T11:01:16;101440.31;;;20.59;100.00
52949;BME280;38812;50.942;3.644;2022-10-16T11:06:24;101460.59;;;20.11;100.00
52949;BME280;38812;50.942;3.644;2022-10-16T11:09:09;101421.81;;;20.39;100.00
52949;BME280;38812;50.942;3.644;2022-10-16T11:11:43;101417.59;;;20.35;100.00
52949;BME280;38812;50.942;3.644;2022-10-16T11:14:20;101453.44;;;20.79;100.00
52949;BME280;38812;50.942;3.644;2022-10-16T11:22:49;101446.91;;;20.69;100.00
52949;BME280;38812;50.942;3.644;2022-10-16T11:24:53;101455.22;;;20.63;100.00
52949;BME280;38812;50.942;3.644;2022-10-16T11:27:26;101467.47;;;20.15;100.00
52949;BME280;38812;50.942;3.644;2022-10-16T11:29:59;101450.84;;;20.28;100.00
52949;BME280;38812;50.942;3.644;2022-10-16T11:32:28;101462.31;;;20.47;100.00
52949;BME280;38812;50.942;3.644;2022-10-16T11:35:18;101456.66;;;20.18;100.00
52949;BME280;38812;50.942;3.644;2022-10-16T11:37:46;101462.16;;;20.50;100.00
52949;BME280;38812;50.942;3.644;2022-10-16T11:40:32;101444.03;;;20.39;100.00
52949;BME280;38812;50.942;3.644;2022-10-16T11:43:29;101440.97;;;20.47;100.00
52949;BME280;38812;50.942;3.644;2022-10-16T11:45:59;101437.75;;;20.40;100.00
52949;BME280;38812;50.942;3.644;2022-10-16T11:48:50;101434.72;;;20.13;100.00
52949;BME280;38812;50.942;3.644;2022-10-16T11:51:25;101436.25;;;20.00;100.00
52949;BME280;38812;50.942;3.644;2022-10-16T11:54:02;101442.44;;;20.18;100.00
52949;BME280;38812;50.942;3.644;2022-10-16T11:56:30;101444.25;;;20.35;100.00
52949;BME280;38812;50.942;3.644;2022-10-16T11:59:02;101429.03;;;20.02;100.00
52949;BME280;38812;50.942;3.644;2022-10-16T12:01:53;101446.47;;;20.44;100.00
52949;BME280;38812;50.942;3.644;2022-10-16T12:04:30;101436.50;;;20.13;100.00
52949;BME280;38812;50.942;3.644;2022-10-16T12:07:10;101443.00;;;20.42;100.00
52949;BME280;38812;50.942;3.644;2022-10-16T12:09:39;101466.94;;;19.92;100.00
52949;BME280;38812;50.942;3.644;2022-10-16T12:12:25;101473.41;;;19.31;100.00
52949;BME280;38812;50.942;3.644;2022-10-16T12:15:19;101471.22;;;18.83;100.00
52949;BME280;38812;50.942;3.644;2022-10-16T12:17:44;101454.69;;;19.33;100.00
52949;BME280;38812;50.942;3.644;2022-10-16T12:22:42;101447.88;;;20.34;100.00
52949;BME280;38812;50.942;3.644;2022-10-16T12:25:39;101453.22;;;20.34;100.00
52949;BME280;38812;50.942;3.644;2022-10-16T12:28:20;101438.81;;;20.71;100.00
52949;BME280;38812;50.942;3.644;2022-10-16T12:30:54;101453.81;;;20.73;100.00
52949;BME280;38812;50.942;3.644;2022-10-16T12:33:24;101459.50;;;20.83;100.00
52949;BME280;38812;50.942;3.644;2022-10-16T12:35:51;101448.50;;;20.56;100.00
52949;BME280;38812;50.942;3.644;2022-10-16T12:38:24;101419.38;;;20.34;100.00
52949;BME280;38812;50.942;3.644;2022-10-16T12:41:00;101429.16;;;20.84;100.00
52949;BME280;38812;50.942;3.644;2022-10-16T12:46:02;101437.19;;;20.51;100.00
52949;BME280;38812;50.942;3.644;2022-10-16T12:48:28;101448.63;;;20.36;100.00
52949;BME280;38812;50.942;3.644;2022-10-16T12:50:54;101438.38;;;20.45;100.00
52949;BME280;38812;50.942;3.644;2022-10-16T12:53:22;101431.84;;;20.84;100.00
52949;BME280;38812;50.942;3.644;2022-10-16T12:56:16;101442.97;;;20.76;100.00
52949;BME280;38812;50.942;3.644;2022-10-16T12:59:16;101439.25;;;20.46;100.00
52949;BME280;38812;50.942;3.644;2022-10-16T13:07:00;101454.03;;;19.09;100.00
52949;BME280;38812;50.942;3.644;2022-10-16T13:14:41;101450.97;;;18.60;100.00
52949;BME280;38812;50.942;3.644;2022-10-16T13:28:03;101446.41;;;19.39;100.00
52949;BME280;38812;50.942;3.644;2022-10-16T13:30:31;101440.94;;;19.23;100.00
52949;BME280;38812;50.942;3.644;2022-10-16T13:33:17;101433.91;;;19.22;100.00
52949;BME280;38812;50.942;3.644;2022-10-16T13:35:53;101422.94;;;19.09;100.00
52949;BME280;38812;50.942;3.644;2022-10-16T13:38:24;101417.53;;;18.92;100.00
52949;BME280;38812;50.942;3.644;2022-10-16T13:43:31;101439.50;;;18.58;100.00
52949;BME280;38812;50.942;3.644;2022-10-16T13:46:03;101431.13;;;18.47;100.00
52949;BME280;38812;50.942;3.644;2022-10-16T13:48:30;101421.53;;;18.43;100.00
52949;BME280;38812;50.942;3.644;2022-10-16T13:51:25;101447.63;;;18.35;100.00
52949;BME280;38812;50.942;3.644;2022-10-16T13:53:51;101421.34;;;18.47;100.00
52949;BME280;38812;50.942;3.644;2022-10-16T13:56:19;101436.03;;;18.56;100.00
52949;BME280;38812;50.942;3.644;2022-10-16T13:58:45;101413.47;;;18.65;100.00
52949;BME280;38812;50.942;3.644;2022-10-16T14:01:27;101415.00;;;18.70;100.00
52949;BME280;38812;50.942;3.644;2022-10-16T14:04:01;101417.25;;;18.79;100.00
52949;BME280;38812;50.942;3.644;2022-10-16T14:06:28;101417.75;;;18.88;100.00
52949;BME280;38812;50.942;3.644;2022-10-16T14:09:06;101421.06;;;18.93;100.00
52949;BME280;38812;50.942;3.644;2022-10-16T14:11:45;101426.13;;;18.80;100.00
52949;BME280;38812;50.942;3.644;2022-10-16T14:14:12;101422.63;;;18.59;100.00
52949;BME280;38812;50.942;3.644;2022-10-16T14:16:41;101445.88;;;18.54;100.00
52949;BME280;38812;50.942;3.644;2022-10-16T14:19:19;101444.03;;;18.36;100.00
52949;BME280;38812;50.942;3.644;2022-10-16T14:21:45;101445.78;;;18.37;100.00
52949;BME280;38812;50.942;3.644;2022-10-16T14:24:12;101429.00;;;18.35;100.00
52949;BME280;38812;50.942;3.644;2022-10-16T14:26:44;101410.06;;;18.22;100.00
52949;BME280;38812;50.942;3.644;2022-10-16T14:29:13;101439.53;;;18.18;100.00